logo
Search for airport 
image banner adimage banner adimage banner ad
image banner ad

ED1578 - Boeblingen Krhs.

Located in Boeblingen, Germany

ICAO - , IATA -

Data provided by Airmate  

General information

Coordinates: N48°41'26" E9°1'56"
Elevation is 1693 feet MSL.
 
View others Airports in Baden-Württemberg

Operational data

Special qualification required
Current time UTC:
Current local time:
Weather at : EDDS - Stuttgart ( 14 km )
METAR: EDDS 290750Z AUTO 08003KT CAVOK 16/12 Q1020 NOSIG
TAF: TAF EDDS 290500Z 2906/3006 VRB03KT CAVOK BECMG 2909/2911 21007KT PROB30 TEMPO 2916/2919 28015G25KT 4000 SHRA SCT040CB
View NOTAMs / SUP AIP / TFR affecting this airport [VIEW]
Communications frequencies: [VIEW]

Runways:

Airport contact information

Address: Boeblingen Germany

Satellite view of ED1578